sensor_id;sensor_type;location;lat;lon;timestamp;temperature;humidity
40153;DHT22;26371;56.992;23.912;2022-10-03T00:01:36;7.80;99.90
40153;DHT22;26371;56.992;23.912;2022-10-03T00:04:20;7.80;99.90
40153;DHT22;26371;56.992;23.912;2022-10-03T00:07:02;7.80;99.90
40153;DHT22;26371;56.992;23.912;2022-10-03T00:09:51;7.80;99.90
40153;DHT22;26371;56.992;23.912;2022-10-03T00:12:40;7.80;99.90
40153;DHT22;26371;56.992;23.912;2022-10-03T00:15:18;7.40;99.90
40153;DHT22;26371;56.992;23.912;2022-10-03T00:18:00;7.60;99.90
40153;DHT22;26371;56.992;23.912;2022-10-03T00:20:47;7.60;99.90
40153;DHT22;26371;56.992;23.912;2022-10-03T00:23:23;7.60;99.90
40153;DHT22;26371;56.992;23.912;2022-10-03T00:26:07;7.60;99.90
40153;DHT22;26371;56.992;23.912;2022-10-03T00:29:12;6.90;99.90
40153;DHT22;26371;56.992;23.912;2022-10-03T00:31:52;7.20;99.90
40153;DHT22;26371;56.992;23.912;2022-10-03T00:34:30;7.80;99.90
40153;DHT22;26371;56.992;23.912;2022-10-03T00:37:19;7.60;99.90
40153;DHT22;26371;56.992;23.912;2022-10-03T00:43:21;7.50;99.90
40153;DHT22;26371;56.992;23.912;2022-10-03T00:52:33;7.40;99.90
40153;DHT22;26371;56.992;23.912;2022-10-03T00:55:17;7.40;99.90
40153;DHT22;26371;56.992;23.912;2022-10-03T00:58:15;7.20;99.90
40153;DHT22;26371;56.992;23.912;2022-10-03T01:00:49;7.40;99.90
40153;DHT22;26371;56.992;23.912;2022-10-03T01:03:32;7.40;99.90
40153;DHT22;26371;56.992;23.912;2022-10-03T01:06:16;7.30;99.90
40153;DHT22;26371;56.992;23.912;2022-10-03T01:11:39;7.30;99.90
40153;DHT22;26371;56.992;23.912;2022-10-03T01:14:27;7.30;99.90
40153;DHT22;26371;56.992;23.912;2022-10-03T01:17:12;7.20;99.90
40153;DHT22;26371;56.992;23.912;2022-10-03T01:20:10;6.60;99.90
40153;DHT22;26371;56.992;23.912;2022-10-03T01:25:41;6.50;99.90
40153;DHT22;26371;56.992;23.912;2022-10-03T01:28:42;7.20;99.90
40153;DHT22;26371;56.992;23.912;2022-10-03T01:31:39;6.90;99.90
40153;DHT22;26371;56.992;23.912;2022-10-03T01:34:18;7.10;99.90
40153;DHT22;26371;56.992;23.912;2022-10-03T01:36:59;7.00;99.90
40153;DHT22;26371;56.992;23.912;2022-10-03T01:39:38;7.00;99.90
40153;DHT22;26371;56.992;23.912;2022-10-03T01:42:14;7.10;99.90
40153;DHT22;26371;56.992;23.912;2022-10-03T01:45:02;7.00;99.90
40153;DHT22;26371;56.992;23.912;2022-10-03T01:47:45;7.00;99.90
40153;DHT22;26371;56.992;23.912;2022-10-03T01:50:25;7.00;99.90
40153;DHT22;26371;56.992;23.912;2022-10-03T01:53:03;7.10;99.90
40153;DHT22;26371;56.992;23.912;2022-10-03T01:55:43;7.00;99.90
40153;DHT22;26371;56.992;23.912;2022-10-03T01:58:21;7.00;99.90
40153;DHT22;26371;56.992;23.912;2022-10-03T02:01:03;7.00;99.90
40153;DHT22;26371;56.992;23.912;2022-10-03T02:03:37;7.00;99.90
40153;DHT22;26371;56.992;23.912;2022-10-03T02:06:20;7.00;99.90
40153;DHT22;26371;56.992;23.912;2022-10-03T02:08:57;7.00;99.90
40153;DHT22;26371;56.992;23.912;2022-10-03T02:11:35;7.00;99.90
40153;DHT22;26371;56.992;23.912;2022-10-03T02:14:20;7.00;99.90
40153;DHT22;26371;56.992;23.912;2022-10-03T02:17:00;7.10;99.90
40153;DHT22;26371;56.992;23.912;2022-10-03T02:19:40;7.10;99.90
40153;DHT22;26371;56.992;23.912;2022-10-03T02:22:14;7.10;99.90
40153;DHT22;26371;56.992;23.912;2022-10-03T02:24:51;6.00;99.90
40153;DHT22;26371;56.992;23.912;2022-10-03T02:30:30;7.30;99.90
40153;DHT22;26371;56.992;23.912;2022-10-03T02:36:29;7.40;99.90
40153;DHT22;26371;56.992;23.912;2022-10-03T02:42:36;7.40;99.90
40153;DHT22;26371;56.992;23.912;2022-10-03T02:45:36;7.40;99.90
40153;DHT22;26371;56.992;23.912;2022-10-03T02:48:36;7.50;99.90
40153;DHT22;26371;56.992;23.912;2022-10-03T02:54:56;7.40;99.90
40153;DHT22;26371;56.992;23.912;2022-10-03T03:01:04;8.00;99.90
40153;DHT22;26371;56.992;23.912;2022-10-03T03:04:12;7.90;99.90
40153;DHT22;26371;56.992;23.912;2022-10-03T03:07:24;8.70;99.90
40153;DHT22;26371;56.992;23.912;2022-10-03T03:10:27;8.10;99.90
40153;DHT22;26371;56.992;23.912;2022-10-03T03:16:15;7.90;99.90
40153;DHT22;26371;56.992;23.912;2022-10-03T03:19:09;8.00;99.90
40153;DHT22;26371;56.992;23.912;2022-10-03T03:21:43;8.00;99.90
40153;DHT22;26371;56.992;23.912;2022-10-03T03:24:40;8.10;99.90
40153;DHT22;26371;56.992;23.912;2022-10-03T03:27:27;8.10;99.90
40153;DHT22;26371;56.992;23.912;2022-10-03T03:30:05;8.00;99.90
40153;DHT22;26371;56.992;23.912;2022-10-03T03:32:48;8.00;99.90
40153;DHT22;26371;56.992;23.912;2022-10-03T03:35:32;8.10;99.90
40153;DHT22;26371;56.992;23.912;2022-10-03T03:38:16;8.10;99.90
40153;DHT22;26371;56.992;23.912;2022-10-03T03:40:57;8.10;99.90
40153;DHT22;26371;56.992;23.912;2022-10-03T03:44:05;8.10;99.90
40153;DHT22;26371;56.992;23.912;2022-10-03T03:46:44;8.10;99.90
40153;DHT22;26371;56.992;23.912;2022-10-03T03:49:30;8.10;99.90
40153;DHT22;26371;56.992;23.912;2022-10-03T03:52:21;8.20;99.90
40153;DHT22;26371;56.992;23.912;2022-10-03T04:00:59;8.30;99.90
40153;DHT22;26371;56.992;23.912;2022-10-03T04:03:40;8.50;99.90
40153;DHT22;26371;56.992;23.912;2022-10-03T04:06:40;8.50;99.90
40153;DHT22;26371;56.992;23.912;2022-10-03T04:09:24;8.50;99.90
40153;DHT22;26371;56.992;23.912;2022-10-03T04:12:05;8.50;99.90
40153;DHT22;26371;56.992;23.912;2022-10-03T04:14:58;8.30;99.90
40153;DHT22;26371;56.992;23.912;2022-10-03T04:17:42;8.40;99.90
40153;DHT22;26371;56.992;23.912;2022-10-03T04:20:48;8.70;99.90
40153;DHT22;26371;56.992;23.912;2022-10-03T04:23:36;8.60;99.90
40153;DHT22;26371;56.992;23.912;2022-10-03T04:26:21;8.50;99.90
40153;DHT22;26371;56.992;23.912;2022-10-03T04:29:08;8.50;99.90
40153;DHT22;26371;56.992;23.912;2022-10-03T04:31:59;8.50;99.90
40153;DHT22;26371;56.992;23.912;2022-10-03T04:34:52;8.60;99.90
40153;DHT22;26371;56.992;23.912;2022-10-03T04:37:25;8.50;99.90
40153;DHT22;26371;56.992;23.912;2022-10-03T04:40:26;8.60;99.90
40153;DHT22;26371;56.992;23.912;2022-10-03T04:43:08;8.60;99.90
40153;DHT22;26371;56.992;23.912;2022-10-03T04:45:53;8.60;99.90
40153;DHT22;26371;56.992;23.912;2022-10-03T04:48:31;8.50;99.90
40153;DHT22;26371;56.992;23.912;2022-10-03T04:51:11;8.60;99.90
40153;DHT22;26371;56.992;23.912;2022-10-03T04:53:51;8.60;99.90
40153;DHT22;26371;56.992;23.912;2022-10-03T04:56:41;8.60;99.90
40153;DHT22;26371;56.992;23.912;2022-10-03T04:59:35;8.60;99.90
40153;DHT22;26371;56.992;23.912;2022-10-03T05:02:18;8.60;99.90
40153;DHT22;26371;56.992;23.912;2022-10-03T05:05:20;8.60;99.90
40153;DHT22;26371;56.992;23.912;2022-10-03T05:07:57;8.70;99.90
40153;DHT22;26371;56.992;23.912;2022-10-03T05:10:46;8.70;99.90
40153;DHT22;26371;56.992;23.912;2022-10-03T05:13:31;8.80;99.90
40153;DHT22;26371;56.992;23.912;2022-10-03T05:16:17;8.80;99.90
40153;DHT22;26371;56.992;23.912;2022-10-03T05:18:54;8.80;99.90
40153;DHT22;26371;56.992;23.912;2022-10-03T05:21:32;8.80;99.90
40153;DHT22;26371;56.992;23.912;2022-10-03T05:24:14;8.80;99.90
40153;DHT22;26371;56.992;23.912;2022-10-03T05:26:52;8.80;99.90
40153;DHT22;26371;56.992;23.912;2022-10-03T05:29:35;8.80;99.90
40153;DHT22;26371;56.992;23.912;2022-10-03T05:35:23;8.80;99.90
40153;DHT22;26371;56.992;23.912;2022-10-03T05:41:17;8.70;99.90
40153;DHT22;26371;56.992;23.912;2022-10-03T05:44:03;8.80;99.90
40153;DHT22;26371;56.992;23.912;2022-10-03T05:46:50;8.70;99.90
40153;DHT22;26371;56.992;23.912;2022-10-03T05:53:04;8.80;99.90
40153;DHT22;26371;56.992;23.912;2022-10-03T05:55:49;8.70;99.90
40153;DHT22;26371;56.992;23.912;2022-10-03T05:58:46;7.20;99.90
40153;DHT22;26371;56.992;23.912;2022-10-03T06:02:07;8.70;99.90
40153;DHT22;26371;56.992;23.912;2022-10-03T06:05:13;8.60;99.90
40153;DHT22;26371;56.992;23.912;2022-10-03T06:11:01;8.60;99.90
40153;DHT22;26371;56.992;23.912;2022-10-03T06:14:01;8.70;99.90
40153;DHT22;26371;56.992;23.912;2022-10-03T06:16:45;8.60;99.90
40153;DHT22;26371;56.992;23.912;2022-10-03T06:19:36;8.60;99.90
40153;DHT22;26371;56.992;23.912;2022-10-03T06:25:52;8.60;99.90
40153;DHT22;26371;56.992;23.912;2022-10-03T06:32:08;8.60;99.90
40153;DHT22;26371;56.992;23.912;2022-10-03T06:44:21;8.50;99.90
40153;DHT22;26371;56.992;23.912;2022-10-03T06:50:16;8.50;99.90
40153;DHT22;26371;56.992;23.912;2022-10-03T06:53:18;8.50;99.90
40153;DHT22;26371;56.992;23.912;2022-10-03T06:56:11;8.50;99.90
40153;DHT22;26371;56.992;23.912;2022-10-03T07:02:19;8.50;99.90
40153;DHT22;26371;56.992;23.912;2022-10-03T07:11:53;8.50;99.90
40153;DHT22;26371;56.992;23.912;2022-10-03T07:18:52;8.50;99.90
40153;DHT22;26371;56.992;23.912;2022-10-03T07:21:55;8.50;99.90
40153;DHT22;26371;56.992;23.912;2022-10-03T07:30:57;8.60;99.90
40153;DHT22;26371;56.992;23.912;2022-10-03T07:37:03;8.60;99.90
40153;DHT22;26371;56.992;23.912;2022-10-03T07:40:14;8.60;99.90
40153;DHT22;26371;56.992;23.912;2022-10-03T07:43:20;8.70;99.90
40153;DHT22;26371;56.992;23.912;2022-10-03T07:49:15;8.70;99.90
40153;DHT22;26371;56.992;23.912;2022-10-03T07:52:06;8.70;99.90
40153;DHT22;26371;56.992;23.912;2022-10-03T07:58:09;8.80;99.90
40153;DHT22;26371;56.992;23.912;2022-10-03T08:00:59;8.80;99.90
40153;DHT22;26371;56.992;23.912;2022-10-03T08:07:00;9.00;99.90
40153;DHT22;26371;56.992;23.912;2022-10-03T08:13:10;8.90;99.90
40153;DHT22;26371;56.992;23.912;2022-10-03T08:16:03;8.90;99.90
40153;DHT22;26371;56.992;23.912;2022-10-03T08:22:00;9.00;99.90
40153;DHT22;26371;56.992;23.912;2022-10-03T08:25:18;9.10;99.90
40153;DHT22;26371;56.992;23.912;2022-10-03T08:28:16;9.10;99.90
40153;DHT22;26371;56.992;23.912;2022-10-03T08:31:12;9.30;99.90
40153;DHT22;26371;56.992;23.912;2022-10-03T08:34:01;9.60;99.90
40153;DHT22;26371;56.992;23.912;2022-10-03T08:36:59;9.50;99.90
40153;DHT22;26371;56.992;23.912;2022-10-03T08:39:56;9.50;99.90
40153;DHT22;26371;56.992;23.912;2022-10-03T08:42:57;9.60;99.90
40153;DHT22;26371;56.992;23.912;2022-10-03T08:49:02;9.50;99.90
40153;DHT22;26371;56.992;23.912;2022-10-03T08:52:00;9.60;99.90
40153;DHT22;26371;56.992;23.912;2022-10-03T08:54:54;9.70;99.90
40153;DHT22;26371;56.992;23.912;2022-10-03T09:00:56;9.70;99.90
40153;DHT22;26371;56.992;23.912;2022-10-03T09:06:57;9.80;99.90
40153;DHT22;26371;56.992;23.912;2022-10-03T09:13:21;9.90;99.90
40153;DHT22;26371;56.992;23.912;2022-10-03T09:16:36;9.90;99.90
40153;DHT22;26371;56.992;23.912;2022-10-03T09:26:02;10.00;99.90
40153;DHT22;26371;56.992;23.912;2022-10-03T09:29:19;10.10;99.90
40153;DHT22;26371;56.992;23.912;2022-10-03T09:35:22;10.10;99.90
40153;DHT22;26371;56.992;23.912;2022-10-03T09:44:20;10.30;99.90
40153;DHT22;26371;56.992;23.912;2022-10-03T09:50:52;10.50;99.90
40153;DHT22;26371;56.992;23.912;2022-10-03T09:54:05;10.50;99.90
40153;DHT22;26371;56.992;23.912;2022-10-03T09:57:01;10.50;99.90
40153;DHT22;26371;56.992;23.912;2022-10-03T09:59:56;10.50;99.90
40153;DHT22;26371;56.992;23.912;2022-10-03T10:09:21;10.40;99.90
40153;DHT22;26371;56.992;23.912;2022-10-03T10:12:22;10.50;99.90
40153;DHT22;26371;56.992;23.912;2022-10-03T10:15:17;10.50;99.90
40153;DHT22;26371;56.992;23.912;2022-10-03T10:18:34;10.40;99.90
40153;DHT22;26371;56.992;23.912;2022-10-03T10:21:40;10.40;99.90
40153;DHT22;26371;56.992;23.912;2022-10-03T10:27:50;10.60;99.90
40153;DHT22;26371;56.992;23.912;2022-10-03T10:44:06;10.50;99.90
40153;DHT22;26371;56.992;23.912;2022-10-03T10:47:23;10.50;99.90
40153;DHT22;26371;56.992;23.912;2022-10-03T10:56:51;10.40;99.90
40153;DHT22;26371;56.992;23.912;2022-10-03T11:15:56;10.60;99.90
40153;DHT22;26371;56.992;23.912;2022-10-03T11:37:46;10.70;99.90
40153;DHT22;26371;56.992;23.912;2022-10-03T11:40:26;10.70;99.90
40153;DHT22;26371;56.992;23.912;2022-10-03T11:46:21;10.70;99.90
40153;DHT22;26371;56.992;23.912;2022-10-03T11:48:59;10.80;99.90
40153;DHT22;26371;56.992;23.912;2022-10-03T11:51:40;10.80;99.90
40153;DHT22;26371;56.992;23.912;2022-10-03T11:54:20;10.80;99.90
40153;DHT22;26371;56.992;23.912;2022-10-03T11:57:01;10.80;99.90
40153;DHT22;26371;56.992;23.912;2022-10-03T11:59:39;11.00;99.90
40153;DHT22;26371;56.992;23.912;2022-10-03T12:02:18;10.90;99.90
40153;DHT22;26371;56.992;23.912;2022-10-03T12:04:56;11.00;99.90
40153;DHT22;26371;56.992;23.912;2022-10-03T12:07:41;11.00;99.90
40153;DHT22;26371;56.992;23.912;2022-10-03T12:10:36;11.00;99.90
40153;DHT22;26371;56.992;23.912;2022-10-03T12:13:12;11.00;99.90
40153;DHT22;26371;56.992;23.912;2022-10-03T12:15:47;11.00;99.90
40153;DHT22;26371;56.992;23.912;2022-10-03T12:18:23;11.00;99.90
40153;DHT22;26371;56.992;23.912;2022-10-03T12:21:04;11.00;99.90
40153;DHT22;26371;56.992;23.912;2022-10-03T12:24:02;11.00;99.90
40153;DHT22;26371;56.992;23.912;2022-10-03T12:26:44;11.00;99.90
40153;DHT22;26371;56.992;23.912;2022-10-03T12:29:18;11.00;99.90
40153;DHT22;26371;56.992;23.912;2022-10-03T12:32:09;11.00;99.90
40153;DHT22;26371;56.992;23.912;2022-10-03T12:34:46;11.10;99.90
40153;DHT22;26371;56.992;23.912;2022-10-03T12:37:44;11.20;99.90
40153;DHT22;26371;56.992;23.912;2022-10-03T12:40:21;11.20;99.90
40153;DHT22;26371;56.992;23.912;2022-10-03T12:43:03;11.10;99.90
40153;DHT22;26371;56.992;23.912;2022-10-03T12:45:39;11.10;99.90
40153;DHT22;26371;56.992;23.912;2022-10-03T12:48:24;11.10;99.90
40153;DHT22;26371;56.992;23.912;2022-10-03T12:50:59;11.10;99.90
40153;DHT22;26371;56.992;23.912;2022-10-03T12:53:34;11.10;99.90
40153;DHT22;26371;56.992;23.912;2022-10-03T12:56:15;11.10;99.90
40153;DHT22;26371;56.992;23.912;2022-10-03T12:59:02;11.20;99.90
40153;DHT22;26371;56.992;23.912;2022-10-03T13:01:50;11.20;99.90
40153;DHT22;26371;56.992;23.912;2022-10-03T13:04:32;11.20;99.90
40153;DHT22;26371;56.992;23.912;2022-10-03T13:07:25;11.20;99.90
40153;DHT22;26371;56.992;23.912;2022-10-03T13:10:14;11.20;99.90
40153;DHT22;26371;56.992;23.912;2022-10-03T13:12:48;11.20;99.90
40153;DHT22;26371;56.992;23.912;2022-10-03T13:15:45;11.20;99.90
40153;DHT22;26371;56.992;23.912;2022-10-03T13:18:27;11.20;99.90
40153;DHT22;26371;56.992;23.912;2022-10-03T13:21:03;11.20;99.90
40153;DHT22;26371;56.992;23.912;2022-10-03T13:23:57;11.30;99.90
40153;DHT22;26371;56.992;23.912;2022-10-03T13:26:41;11.20;99.90
40153;DHT22;26371;56.992;23.912;2022-10-03T13:29:24;11.30;99.90
40153;DHT22;26371;56.992;23.912;2022-10-03T13:32:09;11.30;99.90
40153;DHT22;26371;56.992;23.912;2022-10-03T13:38:30;11.40;99.90
40153;DHT22;26371;56.992;23.912;2022-10-03T13:41:10;11.40;99.90
40153;DHT22;26371;56.992;23.912;2022-10-03T13:43:46;11.00;99.90
40153;DHT22;26371;56.992;23.912;2022-10-03T13:46:22;11.30;99.90
40153;DHT22;26371;56.992;23.912;2022-10-03T13:48:57;11.30;99.90
40153;DHT22;26371;56.992;23.912;2022-10-03T13:51:35;11.30;99.90
40153;DHT22;26371;56.992;23.912;2022-10-03T13:54:10;11.30;99.90
40153;DHT22;26371;56.992;23.912;2022-10-03T13:56:54;11.40;99.90
40153;DHT22;26371;56.992;23.912;2022-10-03T13:59:49;11.30;99.90
40153;DHT22;26371;56.992;23.912;2022-10-03T14:05:56;11.40;99.90
40153;DHT22;26371;56.992;23.912;2022-10-03T14:08:48;11.40;99.90
40153;DHT22;26371;56.992;23.912;2022-10-03T14:11:22;11.40;99.90
40153;DHT22;26371;56.992;23.912;2022-10-03T14:14:08;11.40;99.90
40153;DHT22;26371;56.992;23.912;2022-10-03T14:16:45;11.40;99.90
40153;DHT22;26371;56.992;23.912;2022-10-03T14:19:24;11.30;99.90
40153;DHT22;26371;56.992;23.912;2022-10-03T14:22:07;10.70;99.90
40153;DHT22;26371;56.992;23.912;2022-10-03T14:24:51;11.40;99.90
40153;DHT22;26371;56.992;23.912;2022-10-03T14:27:52;11.40;99.90
40153;DHT22;26371;56.992;23.912;2022-10-03T14:30:23;11.40;99.90
40153;DHT22;26371;56.992;23.912;2022-10-03T14:33:04;11.40;99.90
40153;DHT22;26371;56.992;23.912;2022-10-03T14:35:40;11.50;99.90
40153;DHT22;26371;56.992;23.912;2022-10-03T14:38:30;11.50;99.90
40153;DHT22;26371;56.992;23.912;2022-10-03T14:41:18;11.50;99.90
40153;DHT22;26371;56.992;23.912;2022-10-03T14:43:52;11.50;99.90
40153;DHT22;26371;56.992;23.912;2022-10-03T14:46:25;11.50;99.90
40153;DHT22;26371;56.992;23.912;2022-10-03T14:48:56;11.40;99.90
40153;DHT22;26371;56.992;23.912;2022-10-03T14:51:29;11.50;99.90
40153;DHT22;26371;56.992;23.912;2022-10-03T14:54:06;11.50;99.90
40153;DHT22;26371;56.992;23.912;2022-10-03T14:56:41;11.50;99.90
40153;DHT22;26371;56.992;23.912;2022-10-03T14:59:15;11.50;99.90
40153;DHT22;26371;56.992;23.912;2022-10-03T15:01:47;11.50;99.90
40153;DHT22;26371;56.992;23.912;2022-10-03T15:04:29;11.40;99.90
40153;DHT22;26371;56.992;23.912;2022-10-03T15:06:59;11.50;99.90
40153;DHT22;26371;56.992;23.912;2022-10-03T15:09:46;11.50;99.90
40153;DHT22;26371;56.992;23.912;2022-10-03T15:12:18;11.50;99.90
40153;DHT22;26371;56.992;23.912;2022-10-03T15:14:59;11.50;99.90
40153;DHT22;26371;56.992;23.912;2022-10-03T15:17:32;11.50;99.90
40153;DHT22;26371;56.992;23.912;2022-10-03T15:20:03;11.50;99.90
40153;DHT22;26371;56.992;23.912;2022-10-03T15:22:34;11.50;99.90
40153;DHT22;26371;56.992;23.912;2022-10-03T15:25:12;11.50;99.90
40153;DHT22;26371;56.992;23.912;2022-10-03T15:27:47;11.40;99.90
40153;DHT22;26371;56.992;23.912;2022-10-03T15:30:20;11.40;99.90
40153;DHT22;26371;56.992;23.912;2022-10-03T15:33:05;11.40;99.90
40153;DHT22;26371;56.992;23.912;2022-10-03T15:35:38;11.50;99.90
40153;DHT22;26371;56.992;23.912;2022-10-03T15:38:14;11.50;99.90
40153;DHT22;26371;56.992;23.912;2022-10-03T15:40:51;11.50;99.90
40153;DHT22;26371;56.992;23.912;2022-10-03T15:43:31;11.50;99.90
40153;DHT22;26371;56.992;23.912;2022-10-03T15:46:03;11.50;99.90
40153;DHT22;26371;56.992;23.912;2022-10-03T15:48:34;11.40;99.90
40153;DHT22;26371;56.992;23.912;2022-10-03T15:51:04;11.40;99.90
40153;DHT22;26371;56.992;23.912;2022-10-03T15:53:35;11.40;99.90
40153;DHT22;26371;56.992;23.912;2022-10-03T15:56:12;11.40;99.90
40153;DHT22;26371;56.992;23.912;2022-10-03T15:58:46;11.40;99.90
40153;DHT22;26371;56.992;23.912;2022-10-03T16:01:21;11.40;99.90
40153;DHT22;26371;56.992;23.912;2022-10-03T16:03:53;11.40;99.90
40153;DHT22;26371;56.992;23.912;2022-10-03T16:06:27;11.40;99.90
40153;DHT22;26371;56.992;23.912;2022-10-03T16:09:05;11.30;99.90
40153;DHT22;26371;56.992;23.912;2022-10-03T16:11:45;11.30;99.90
40153;DHT22;26371;56.992;23.912;2022-10-03T16:14:18;11.30;99.90
40153;DHT22;26371;56.992;23.912;2022-10-03T16:16:53;11.40;99.90
40153;DHT22;26371;56.992;23.912;2022-10-03T16:19:30;11.30;99.90
40153;DHT22;26371;56.992;23.912;2022-10-03T16:22:12;11.30;99.90
40153;DHT22;26371;56.992;23.912;2022-10-03T16:24:48;11.30;99.90
40153;DHT22;26371;56.992;23.912;2022-10-03T16:27:21;11.30;99.90
40153;DHT22;26371;56.992;23.912;2022-10-03T16:29:56;11.30;99.90
40153;DHT22;26371;56.992;23.912;2022-10-03T16:32:32;11.30;99.90
40153;DHT22;26371;56.992;23.912;2022-10-03T16:38:16;11.30;99.90
40153;DHT22;26371;56.992;23.912;2022-10-03T16:40:53;11.30;99.90
40153;DHT22;26371;56.992;23.912;2022-10-03T16:43:25;11.20;99.90
40153;DHT22;26371;56.992;23.912;2022-10-03T16:45:58;11.40;99.90
40153;DHT22;26371;56.992;23.912;2022-10-03T16:48:30;11.30;99.90
40153;DHT22;26371;56.992;23.912;2022-10-03T16:51:19;11.30;99.90
40153;DHT22;26371;56.992;23.912;2022-10-03T16:53:51;11.40;99.90
40153;DHT22;26371;56.992;23.912;2022-10-03T16:56:24;11.40;99.90
40153;DHT22;26371;56.992;23.912;2022-10-03T16:59:05;11.40;99.90
40153;DHT22;26371;56.992;23.912;2022-10-03T17:01:43;11.30;99.90
40153;DHT22;26371;56.992;23.912;2022-10-03T17:04:22;11.40;99.90
40153;DHT22;26371;56.992;23.912;2022-10-03T17:06:55;11.40;99.90
40153;DHT22;26371;56.992;23.912;2022-10-03T17:09:30;11.40;99.90
40153;DHT22;26371;56.992;23.912;2022-10-03T17:12:05;11.40;99.90
40153;DHT22;26371;56.992;23.912;2022-10-03T17:14:39;11.40;99.90
40153;DHT22;26371;56.992;23.912;2022-10-03T17:17:20;11.40;99.90
40153;DHT22;26371;56.992;23.912;2022-10-03T17:19:57;11.40;99.90
40153;DHT22;26371;56.992;23.912;2022-10-03T17:22:32;11.40;99.90
40153;DHT22;26371;56.992;23.912;2022-10-03T17:25:33;11.40;99.90
40153;DHT22;26371;56.992;23.912;2022-10-03T17:28:04;11.50;99.90
40153;DHT22;26371;56.992;23.912;2022-10-03T17:30:41;11.50;99.90
40153;DHT22;26371;56.992;23.912;2022-10-03T17:33:17;11.50;99.90
40153;DHT22;26371;56.992;23.912;2022-10-03T17:36:00;11.50;99.90
40153;DHT22;26371;56.992;23.912;2022-10-03T17:38:38;11.50;99.90
40153;DHT22;26371;56.992;23.912;2022-10-03T17:41:20;11.50;99.90
40153;DHT22;26371;56.992;23.912;2022-10-03T17:43:59;11.40;99.90
40153;DHT22;26371;56.992;23.912;2022-10-03T17:46:38;11.50;99.90
40153;DHT22;26371;56.992;23.912;2022-10-03T17:49:19;11.40;99.90
40153;DHT22;26371;56.992;23.912;2022-10-03T17:51:50;11.50;99.90
40153;DHT22;26371;56.992;23.912;2022-10-03T17:54:24;11.50;99.90
40153;DHT22;26371;56.992;23.912;2022-10-03T17:56:58;11.50;99.90
40153;DHT22;26371;56.992;23.912;2022-10-03T17:59:35;11.50;99.90
40153;DHT22;26371;56.992;23.912;2022-10-03T18:02:18;11.50;99.90
40153;DHT22;26371;56.992;23.912;2022-10-03T18:04:53;11.50;99.90
40153;DHT22;26371;56.992;23.912;2022-10-03T18:07:26;11.50;99.90
40153;DHT22;26371;56.992;23.912;2022-10-03T18:09:55;11.50;99.90
40153;DHT22;26371;56.992;23.912;2022-10-03T18:12:30;11.50;99.90
40153;DHT22;26371;56.992;23.912;2022-10-03T18:21:34;11.50;99.90
40153;DHT22;26371;56.992;23.912;2022-10-03T18:24:10;11.50;99.90
40153;DHT22;26371;56.992;23.912;2022-10-03T18:26:41;11.50;99.90
40153;DHT22;26371;56.992;23.912;2022-10-03T18:29:23;11.40;99.90
40153;DHT22;26371;56.992;23.912;2022-10-03T18:32:01;11.60;99.90
40153;DHT22;26371;56.992;23.912;2022-10-03T18:34:34;11.60;99.90
40153;DHT22;26371;56.992;23.912;2022-10-03T18:40:02;11.50;99.90
40153;DHT22;26371;56.992;23.912;2022-10-03T18:42:33;11.50;99.90
40153;DHT22;26371;56.992;23.912;2022-10-03T18:45:02;11.50;99.90
40153;DHT22;26371;56.992;23.912;2022-10-03T18:47:33;11.50;99.90
40153;DHT22;26371;56.992;23.912;2022-10-03T18:50:10;11.50;99.90
40153;DHT22;26371;56.992;23.912;2022-10-03T18:52:51;11.50;99.90
40153;DHT22;26371;56.992;23.912;2022-10-03T18:55:24;11.50;99.90
40153;DHT22;26371;56.992;23.912;2022-10-03T18:58:00;11.80;99.90
40153;DHT22;26371;56.992;23.912;2022-10-03T19:00:34;11.60;99.90
40153;DHT22;26371;56.992;23.912;2022-10-03T19:03:13;11.50;99.90
40153;DHT22;26371;56.992;23.912;2022-10-03T19:05:47;11.50;99.90
40153;DHT22;26371;56.992;23.912;2022-10-03T19:08:19;11.50;99.90
40153;DHT22;26371;56.992;23.912;2022-10-03T19:10:52;11.30;99.90
40153;DHT22;26371;56.992;23.912;2022-10-03T19:13:27;11.40;99.90
40153;DHT22;26371;56.992;23.912;2022-10-03T19:16:15;11.50;99.90
40153;DHT22;26371;56.992;23.912;2022-10-03T19:19:00;11.50;99.90
40153;DHT22;26371;56.992;23.912;2022-10-03T19:21:36;11.40;99.90
40153;DHT22;26371;56.992;23.912;2022-10-03T19:24:08;11.30;99.90
40153;DHT22;26371;56.992;23.912;2022-10-03T19:26:44;11.40;99.90
40153;DHT22;26371;56.992;23.912;2022-10-03T19:29:19;11.40;99.90
40153;DHT22;26371;56.992;23.912;2022-10-03T19:31:59;11.70;99.90
40153;DHT22;26371;56.992;23.912;2022-10-03T19:34:34;11.30;99.90
40153;DHT22;26371;56.992;23.912;2022-10-03T19:37:10;11.30;99.90
40153;DHT22;26371;56.992;23.912;2022-10-03T19:39:41;11.20;99.90
40153;DHT22;26371;56.992;23.912;2022-10-03T19:42:23;11.10;99.90
40153;DHT22;26371;56.992;23.912;2022-10-03T19:44:54;11.00;99.90
40153;DHT22;26371;56.992;23.912;2022-10-03T19:47:28;10.90;99.90
40153;DHT22;26371;56.992;23.912;2022-10-03T19:50:06;10.90;99.90
40153;DHT22;26371;56.992;23.912;2022-10-03T19:52:42;10.90;99.90
40153;DHT22;26371;56.992;23.912;2022-10-03T19:55:13;10.90;99.90
40153;DHT22;26371;56.992;23.912;2022-10-03T19:57:46;10.80;99.90
40153;DHT22;26371;56.992;23.912;2022-10-03T20:00:22;10.70;99.90
40153;DHT22;26371;56.992;23.912;2022-10-03T20:03:02;10.80;99.90
40153;DHT22;26371;56.992;23.912;2022-10-03T20:05:37;10.70;99.90
40153;DHT22;26371;56.992;23.912;2022-10-03T20:08:20;10.70;99.90
40153;DHT22;26371;56.992;23.912;2022-10-03T20:11:12;10.70;99.90
40153;DHT22;26371;56.992;23.912;2022-10-03T20:13:46;10.60;99.90
40153;DHT22;26371;56.992;23.912;2022-10-03T20:16:17;10.60;99.90
40153;DHT22;26371;56.992;23.912;2022-10-03T20:18:49;10.60;99.90
40153;DHT22;26371;56.992;23.912;2022-10-03T20:21:22;10.60;99.90
40153;DHT22;26371;56.992;23.912;2022-10-03T20:24:02;10.60;99.90
40153;DHT22;26371;56.992;23.912;2022-10-03T20:26:46;10.60;99.90
40153;DHT22;26371;56.992;23.912;2022-10-03T20:29:26;10.50;99.90
40153;DHT22;26371;56.992;23.912;2022-10-03T20:31:59;10.60;99.90
40153;DHT22;26371;56.992;23.912;2022-10-03T20:34:29;10.60;99.90
40153;DHT22;26371;56.992;23.912;2022-10-03T20:37:01;10.60;99.90
40153;DHT22;26371;56.992;23.912;2022-10-03T20:39:37;10.60;99.90
40153;DHT22;26371;56.992;23.912;2022-10-03T20:42:11;10.60;99.90
40153;DHT22;26371;56.992;23.912;2022-10-03T20:44:59;10.60;99.90
40153;DHT22;26371;56.992;23.912;2022-10-03T20:47:50;10.60;99.90
40153;DHT22;26371;56.992;23.912;2022-10-03T20:50:24;10.60;99.90
40153;DHT22;26371;56.992;23.912;2022-10-03T20:52:58;10.60;99.90
40153;DHT22;26371;56.992;23.912;2022-10-03T20:55:35;10.60;99.90